Time;durP1;ratioP1;P1;durP2;ratioP2;P2;SDS_P1;SDS_P2;PMS_P1;PMS_P2;Temp;Humidity;BMP_temperature;BMP_pressure;BME280_temperature;BME280_humidity;BME280_pressure;Samples;Min_cycle;Max_cycle;Signal;HPM_P1;HPM_P2
2022/01/29 00:01:41;;;;;;;3.80;3.53;;;17.90;60.30;;;;;;4952190;28;20073;-20
2022/01/29 00:04:07;;;;;;;3.97;3.67;;;17.80;60.20;;;;;;4959874;28;20052;-19
2022/01/29 00:06:33;;;;;;;3.70;3.45;;;17.90;60.30;;;;;;4953296;28;20134;-21
2022/01/29 00:08:58;;;;;;;3.83;3.53;;;17.90;60.20;;;;;;4940062;28;20062;-21
2022/01/29 00:11:29;;;;;;;3.95;3.63;;;17.90;60.30;;;;;;4952462;28;20054;-20
2022/01/29 00:13:55;;;;;;;3.78;3.47;;;17.90;60.30;;;;;;4958799;28;20047;-21
2022/01/29 00:16:20;;;;;;;3.65;3.35;;;17.80;60.20;;;;;;4958848;28;20122;-22
2022/01/29 00:18:46;;;;;;;4.15;3.85;;;17.90;60.20;;;;;;4954995;28;20564;-22
2022/01/29 00:21:11;;;;;;;3.40;3.20;;;17.90;60.20;;;;;;4942403;28;20047;-21
2022/01/29 00:23:37;;;;;;;3.78;3.58;;;17.90;60.20;;;;;;4959222;28;20035;-21
2022/01/29 00:26:03;;;;;;;4.20;3.83;;;17.80;60.10;;;;;;4951434;28;20051;-20
2022/01/29 00:28:29;;;;;;;3.45;3.17;;;17.80;60.10;;;;;;4952111;28;20047;-21
2022/01/29 00:30:56;;;;;;;3.20;3.00;;;17.90;60.20;;;;;;4959300;28;20137;-21
2022/01/29 00:33:21;;;;;;;3.17;2.97;;;17.90;60.20;;;;;;4944670;28;20130;-21
2022/01/29 00:35:47;;;;;;;3.22;3.03;;;17.80;60.10;;;;;;4944949;28;20090;-21
2022/01/29 00:38:13;;;;;;;3.33;3.13;;;17.90;60.20;;;;;;4954272;28;20031;-21
2022/01/29 00:40:38;;;;;;;3.33;3.03;;;17.90;60.30;;;;;;4958121;28;20067;-21
2022/01/29 00:43:04;;;;;;;2.80;2.60;;;17.80;60.10;;;;;;4953380;28;20043;-21
2022/01/29 00:45:30;;;;;;;3.10;2.90;;;17.90;60.10;;;;;;4957867;28;20082;-20
2022/01/29 00:47:56;;;;;;;2.72;2.53;;;17.90;60.20;;;;;;4959104;28;20039;-20
2022/01/29 00:50:22;;;;;;;3.30;3.00;;;17.80;60.30;;;;;;4957731;28;20047;-20
2022/01/29 00:52:47;;;;;;;3.22;3.00;;;17.80;60.10;;;;;;4959072;28;20122;-21
2022/01/29 00:55:13;;;;;;;2.95;2.83;;;17.80;60.10;;;;;;4955592;28;20052;-20
2022/01/29 00:57:40;;;;;;;3.28;3.00;;;17.80;60.20;;;;;;4956949;28;20110;-21
2022/01/29 01:00:12;;;;;;;3.13;2.92;;;17.80;60.30;;;;;;4955935;28;20051;-20
2022/01/29 01:02:37;;;;;;;2.55;2.35;;;17.80;60.20;;;;;;4938686;28;20078;-21
2022/01/29 01:05:03;;;;;;;3.05;2.75;;;17.80;60.30;;;;;;4939593;28;20529;-21
2022/01/29 01:07:29;;;;;;;2.75;2.55;;;17.80;60.30;;;;;;4957220;28;20051;-21
2022/01/29 01:09:54;;;;;;;3.10;2.90;;;17.70;60.40;;;;;;4957782;28;20138;-21
2022/01/29 01:12:20;;;;;;;3.10;2.90;;;17.80;60.40;;;;;;4957443;28;20059;-20
2022/01/29 01:14:46;;;;;;;2.83;2.63;;;17.70;60.30;;;;;;4957700;28;20050;-22
2022/01/29 01:17:11;;;;;;;2.80;2.70;;;17.70;60.50;;;;;;4958316;28;20051;-21
2022/01/29 01:19:37;;;;;;;3.08;2.88;;;17.70;60.60;;;;;;4957255;28;20496;-20
2022/01/29 01:22:03;;;;;;;3.13;2.92;;;17.60;60.70;;;;;;4956696;28;20074;-21
2022/01/29 01:24:28;;;;;;;3.03;2.83;;;17.70;60.70;;;;;;4957415;28;20051;-20
2022/01/29 01:26:54;;;;;;;2.70;2.50;;;17.70;60.70;;;;;;4957834;28;20051;-20
2022/01/29 01:29:19;;;;;;;2.60;2.50;;;17.60;60.60;;;;;;4955588;28;20114;-20
2022/01/29 01:31:46;;;;;;;2.85;2.65;;;17.60;60.70;;;;;;4958016;28;20047;-19
2022/01/29 01:34:12;;;;;;;2.72;2.53;;;17.60;60.80;;;;;;4958213;28;20050;-20
2022/01/29 01:36:48;;;;;;;2.92;2.63;;;17.60;60.70;;;;;;4956721;28;20055;-21
2022/01/29 01:39:17;;;;;;;2.20;2.10;;;17.60;60.80;;;;;;4957851;28;20123;-20
2022/01/29 01:41:52;;;;;;;2.60;2.50;;;17.60;60.90;;;;;;4957731;28;20115;-20
2022/01/29 01:44:18;;;;;;;2.63;2.45;;;17.60;60.90;;;;;;4956495;28;20504;-20
2022/01/29 01:46:43;;;;;;;2.38;2.28;;;17.60;60.90;;;;;;4941130;28;20472;-21
2022/01/29 01:49:09;;;;;;;2.90;2.70;;;17.60;60.90;;;;;;4942064;28;20054;-21
2022/01/29 01:51:35;;;;;;;2.72;2.53;;;17.60;61.10;;;;;;4957221;28;20058;-21
2022/01/29 01:54:00;;;;;;;2.58;2.20;;;17.50;61.00;;;;;;4956038;28;20047;-21
2022/01/29 01:56:26;;;;;;;2.38;2.25;;;17.50;61.00;;;;;;4954706;28;20042;-22
2022/01/29 01:58:52;;;;;;;2.72;2.53;;;17.50;61.00;;;;;;4956328;28;20528;-20
2022/01/29 02:01:18;;;;;;;2.35;2.15;;;17.50;61.00;;;;;;4955249;28;20035;-21
2022/01/29 02:03:45;;;;;;;2.38;2.28;;;17.50;60.90;;;;;;4957802;28;20099;-22
2022/01/29 02:06:10;;;;;;;2.25;2.15;;;17.50;61.10;;;;;;4955566;28;20456;-21
2022/01/29 02:08:36;;;;;;;2.10;2.00;;;17.50;61.00;;;;;;4955455;28;20055;-21
2022/01/29 02:11:03;;;;;;;2.40;2.30;;;17.50;61.00;;;;;;4945649;28;20047;-21
2022/01/29 02:13:29;;;;;;;2.63;2.50;;;17.50;61.10;;;;;;4954377;28;20081;-21
2022/01/29 02:15:55;;;;;;;2.30;2.20;;;17.50;60.90;;;;;;4957154;28;20040;-22
2022/01/29 02:18:21;;;;;;;2.40;2.30;;;17.50;61.00;;;;;;4956248;28;20031;-21
2022/01/29 02:20:47;;;;;;;2.03;1.92;;;17.50;60.90;;;;;;4957470;28;20044;-21
2022/01/29 02:23:12;;;;;;;2.10;2.00;;;17.60;60.80;;;;;;4956065;28;20046;-20
2022/01/29 02:25:42;;;;;;;2.10;2.00;;;17.60;60.80;;;;;;4955609;28;20054;-21
2022/01/29 02:28:25;;;;;;;1.83;1.73;;;17.60;60.80;;;;;;4956977;28;20130;-20
2022/01/29 02:30:58;;;;;;;2.30;2.10;;;17.60;60.70;;;;;;4956415;28;20048;-21
2022/01/29 02:33:24;;;;;;;2.10;2.00;;;17.60;60.80;;;;;;4956643;28;20047;-22
2022/01/29 02:35:50;;;;;;;2.10;2.00;;;17.50;60.90;;;;;;4955811;28;20051;-21
2022/01/29 02:38:18;;;;;;;2.10;2.00;;;17.50;60.90;;;;;;4956782;28;20546;-22
2022/01/29 02:40:47;;;;;;;1.58;1.48;;;17.50;61.00;;;;;;4956407;28;20050;-20
2022/01/29 02:43:31;;;;;;;1.77;1.67;;;17.50;61.00;;;;;;4956434;28;20130;-21
2022/01/29 02:46:04;;;;;;;2.05;1.95;;;17.40;61.10;;;;;;4956824;28;20445;-21
2022/01/29 02:48:29;;;;;;;2.13;2.03;;;17.40;61.10;;;;;;4955532;28;20465;-21
2022/01/29 02:50:55;;;;;;;1.70;1.60;;;17.40;61.20;;;;;;4950935;28;20143;-22
2022/01/29 02:53:21;;;;;;;1.73;1.63;;;17.50;60.90;;;;;;4937537;28;20043;-20
2022/01/29 02:55:46;;;;;;;1.58;1.40;;;17.40;61.00;;;;;;4948972;28;20493;-21
2022/01/29 02:58:12;;;;;;;1.70;1.60;;;17.50;60.90;;;;;;4955292;28;20122;-21
2022/01/29 03:00:38;;;;;;;2.08;1.98;;;17.40;61.10;;;;;;4955926;28;20533;-22
2022/01/29 03:03:03;;;;;;;1.90;1.80;;;17.50;61.10;;;;;;4956745;28;20047;-21
2022/01/29 03:05:29;;;;;;;1.70;1.60;;;17.50;60.90;;;;;;4956912;28;20039;-21
2022/01/29 03:07:54;;;;;;;1.70;1.60;;;17.40;60.90;;;;;;4960013;28;20043;-21
2022/01/29 03:10:22;;;;;;;1.90;1.80;;;17.40;61.00;;;;;;4960450;28;20043;-21
2022/01/29 03:12:47;;;;;;;1.60;1.50;;;17.40;61.10;;;;;;4959691;28;20445;-20
2022/01/29 03:15:13;;;;;;;1.83;1.73;;;17.40;61.10;;;;;;4943133;28;20130;-20
2022/01/29 03:17:39;;;;;;;1.52;1.42;;;17.40;61.10;;;;;;4941173;28;20043;-21
2022/01/29 03:20:05;;;;;;;1.38;1.30;;;17.40;61.10;;;;;;4947187;28;20202;-21
2022/01/29 03:22:31;;;;;;;1.48;1.38;;;17.40;61.10;;;;;;4959561;28;20043;-21
2022/01/29 03:24:56;;;;;;;1.60;1.50;;;17.40;61.10;;;;;;4959602;28;20062;-20
2022/01/29 03:27:22;;;;;;;1.50;1.40;;;17.40;61.20;;;;;;4959724;28;20051;-21
2022/01/29 03:29:47;;;;;;;1.30;1.30;;;17.30;61.20;;;;;;4959584;28;20055;-20
2022/01/29 03:32:13;;;;;;;1.38;1.27;;;17.40;61.20;;;;;;4957103;28;20044;-21
2022/01/29 03:34:39;;;;;;;1.40;1.30;;;17.40;61.10;;;;;;4940682;28;20054;-20
2022/01/29 03:37:04;;;;;;;1.58;1.48;;;17.40;61.10;;;;;;4948504;28;20120;-22
2022/01/29 03:39:30;;;;;;;1.50;1.40;;;17.40;61.10;;;;;;4959157;28;20079;-22
2022/01/29 03:42:02;;;;;;;1.45;1.35;;;17.30;61.30;;;;;;4959919;28;20142;-21
2022/01/29 03:44:28;;;;;;;1.55;1.45;;;17.30;61.30;;;;;;4958511;28;20035;-20
2022/01/29 03:46:53;;;;;;;1.70;1.60;;;17.30;61.20;;;;;;4960223;28;20559;-20
2022/01/29 03:49:19;;;;;;;1.20;1.20;;;17.30;61.00;;;;;;4960191;28;20046;-21
2022/01/29 03:51:44;;;;;;;2.17;1.40;;;17.40;61.20;;;;;;4957777;28;20097;-20
2022/01/29 03:54:10;;;;;;;1.48;1.38;;;17.30;61.20;;;;;;4954209;28;20047;-22
2022/01/29 03:56:36;;;;;;;1.40;1.30;;;17.30;61.20;;;;;;4959151;28;20062;-20
2022/01/29 03:59:01;;;;;;;1.60;1.50;;;17.30;61.20;;;;;;4958657;28;20123;-20
2022/01/29 04:01:27;;;;;;;1.40;1.30;;;17.30;61.30;;;;;;4959442;28;20500;-20
2022/01/29 04:03:52;;;;;;;1.38;1.27;;;17.30;61.20;;;;;;4959912;28;20058;-21
2022/01/29 04:06:18;;;;;;;1.70;1.60;;;17.30;61.30;;;;;;4959291;28;20058;-21
2022/01/29 04:08:44;;;;;;;1.17;1.17;;;17.30;61.20;;;;;;4959128;28;20074;-20
2022/01/29 04:11:11;;;;;;;1.30;1.20;;;17.30;61.30;;;;;;4959661;28;20043;-21
2022/01/29 04:13:40;;;;;;;1.00;1.00;;;17.30;61.30;;;;;;4958578;28;20047;-20
2022/01/29 04:16:06;;;;;;;1.30;1.20;;;17.30;61.30;;;;;;4959087;28;20043;-21
2022/01/29 04:18:31;;;;;;;0.98;0.98;;;17.30;61.30;;;;;;4958217;28;20058;-21
2022/01/29 04:20:57;;;;;;;1.40;1.30;;;17.30;61.30;;;;;;4959636;28;20098;-21
2022/01/29 04:23:22;;;;;;;1.10;1.10;;;17.30;61.30;;;;;;4957297;28;20537;-21
2022/01/29 04:25:52;;;;;;;1.25;1.25;;;17.30;61.30;;;;;;4957875;28;20050;-21
2022/01/29 04:28:17;;;;;;;0.98;0.98;;;17.30;61.30;;;;;;4958689;28;20133;-21
2022/01/29 04:30:52;;;;;;;1.00;1.00;;;17.30;61.30;;;;;;4957544;28;20074;-21
2022/01/29 04:35:43;;;;;;;0.90;0.90;;;17.30;61.30;;;;;;4954304;28;20020;-22
2022/01/29 04:38:08;;;;;;;1.00;1.00;;;17.20;61.30;;;;;;4955880;28;20450;-20
2022/01/29 04:40:35;;;;;;;1.08;1.08;;;17.20;61.30;;;;;;4954821;28;20039;-22
2022/01/29 04:43:04;;;;;;;1.10;1.10;;;17.20;61.30;;;;;;4955423;28;20493;-21
2022/01/29 04:45:30;;;;;;;1.00;1.00;;;17.20;61.40;;;;;;4955146;28;20432;-21
2022/01/29 04:47:56;;;;;;;0.88;0.88;;;17.20;61.30;;;;;;4953506;28;20802;-20
2022/01/29 04:50:21;;;;;;;1.02;1.02;;;17.20;61.30;;;;;;4957498;28;20043;-21
2022/01/29 04:52:47;;;;;;;1.20;1.10;;;17.20;61.40;;;;;;4949116;28;20378;-21
2022/01/29 04:55:13;;;;;;;1.20;1.17;;;17.20;61.40;;;;;;4953394;28;20054;-21
2022/01/29 04:57:40;;;;;;;0.80;0.80;;;17.20;61.60;;;;;;4953290;28;20062;-21
2022/01/29 05:00:11;;;;;;;1.10;1.10;;;17.20;61.50;;;;;;4952219;28;20054;-21
2022/01/29 05:02:37;;;;;;;1.00;1.00;;;17.20;61.50;;;;;;4948339;28;20043;-22
2022/01/29 05:05:03;;;;;;;0.80;0.80;;;17.20;61.60;;;;;;4953266;28;20122;-20
2022/01/29 05:07:29;;;;;;;1.20;1.10;;;17.10;61.60;;;;;;4955065;28;20380;-21
2022/01/29 05:09:55;;;;;;;0.93;0.93;;;17.20;61.50;;;;;;4954255;28;20051;-21
2022/01/29 05:12:26;;;;;;;0.93;0.93;;;17.10;61.50;;;;;;4956304;28;20501;-23
2022/01/29 05:15:08;;;;;;;0.90;0.90;;;17.20;61.50;;;;;;4956856;28;20062;-21
2022/01/29 05:28:30;;;;;;;0.98;0.98;;;17.10;61.50;;;;;;4938498;28;20063;-23
2022/01/29 05:30:56;;;;;;;1.27;0.85;;;17.10;61.60;;;;;;4947486;28;20051;-21
2022/01/29 05:33:21;;;;;;;0.80;0.80;;;17.10;61.70;;;;;;4957608;28;20416;-21
2022/01/29 05:35:47;;;;;;;0.90;0.90;;;17.10;61.60;;;;;;4957293;28;20063;-21
2022/01/29 05:38:12;;;;;;;1.23;1.13;;;17.10;61.60;;;;;;4958117;28;20195;-21
2022/01/29 05:40:38;;;;;;;1.00;1.00;;;17.10;61.60;;;;;;4955437;28;20118;-21
2022/01/29 05:43:04;;;;;;;0.70;0.70;;;17.10;61.60;;;;;;4957366;28;20047;-22
2022/01/29 05:45:29;;;;;;;0.80;0.80;;;17.10;61.60;;;;;;4956557;28;20054;-21
2022/01/29 05:47:55;;;;;;;1.27;1.17;;;17.10;61.70;;;;;;4938844;28;20067;-22
2022/01/29 05:50:21;;;;;;;0.85;0.85;;;17.10;61.60;;;;;;4938850;28;20062;-22
2022/01/29 05:52:46;;;;;;;0.80;0.80;;;17.10;61.60;;;;;;4944741;28;20039;-22
2022/01/29 05:55:12;;;;;;;1.00;1.00;;;17.10;61.60;;;;;;4956642;28;20047;-22
2022/01/29 05:57:37;;;;;;;0.90;0.90;;;17.10;61.60;;;;;;4956810;28;20043;-21
2022/01/29 06:00:04;;;;;;;0.90;0.90;;;17.00;61.60;;;;;;4956756;28;20111;-22
2022/01/29 06:02:30;;;;;;;0.90;0.90;;;17.10;61.60;;;;;;4957201;28;20051;-22
2022/01/29 06:04:56;;;;;;;1.05;1.05;;;17.00;61.60;;;;;;4957863;28;20507;-22
2022/01/29 06:07:21;;;;;;;0.80;0.80;;;17.10;61.60;;;;;;4957777;28;20156;-22
2022/01/29 06:09:48;;;;;;;0.80;0.80;;;17.10;61.50;;;;;;4944988;28;20156;-21
2022/01/29 06:12:13;;;;;;;0.63;0.63;;;17.10;61.60;;;;;;4938522;28;20047;-22
2022/01/29 06:14:39;;;;;;;0.90;0.90;;;17.00;61.60;;;;;;4939610;28;20058;-22
2022/01/29 06:17:05;;;;;;;0.88;0.88;;;17.10;61.60;;;;;;4957182;28;20058;-23
2022/01/29 06:19:30;;;;;;;0.90;0.90;;;17.00;61.60;;;;;;4957597;28;20519;-22
2022/01/29 06:21:56;;;;;;;1.00;1.00;;;17.10;61.70;;;;;;4956344;28;20050;-22
2022/01/29 06:24:22;;;;;;;0.70;0.70;;;17.10;61.60;;;;;;4955392;28;20516;-22
2022/01/29 06:26:48;;;;;;;0.60;0.60;;;17.10;61.60;;;;;;4956615;28;20043;-21
2022/01/29 06:29:13;;;;;;;0.80;0.80;;;17.10;61.60;;;;;;4942399;28;20519;-21
2022/01/29 06:31:39;;;;;;;0.70;0.70;;;17.00;61.50;;;;;;4956021;28;20047;-24
2022/01/29 06:34:04;;;;;;;0.70;0.70;;;17.10;61.60;;;;;;4955680;28;20055;-21
2022/01/29 06:36:30;;;;;;;0.80;0.80;;;17.00;61.60;;;;;;4957213;28;20075;-24
2022/01/29 06:38:56;;;;;;;0.60;0.60;;;17.00;61.70;;;;;;4954597;28;20047;-22
2022/01/29 06:41:21;;;;;;;0.70;0.70;;;17.00;61.60;;;;;;4960786;28;20035;-22
2022/01/29 06:43:47;;;;;;;0.80;0.80;;;17.00;61.70;;;;;;4962813;28;20046;-21
2022/01/29 06:46:12;;;;;;;1.00;1.00;;;17.00;61.70;;;;;;4950445;28;20082;-21
2022/01/29 06:48:38;;;;;;;0.63;0.63;;;17.00;61.70;;;;;;4958596;28;20055;-23
2022/01/29 06:51:04;;;;;;;0.60;0.60;;;17.00;61.70;;;;;;4962387;28;20166;-22
2022/01/29 06:53:29;;;;;;;0.70;0.70;;;17.00;61.70;;;;;;4962705;28;20046;-21
2022/01/29 06:55:55;;;;;;;0.60;0.60;;;17.00;61.70;;;;;;4962436;28;20114;-22
2022/01/29 06:58:20;;;;;;;0.60;0.60;;;17.00;61.70;;;;;;4962629;28;20396;-22
2022/01/29 07:00:46;;;;;;;0.57;0.57;;;17.00;61.70;;;;;;4962880;28;20046;-22
2022/01/29 07:03:11;;;;;;;0.60;0.60;;;17.00;61.70;;;;;;4963554;28;20035;-21
2022/01/29 07:05:37;;;;;;;0.60;0.60;;;17.00;61.80;;;;;;4963064;28;20043;-21
2022/01/29 07:08:04;;;;;;;0.60;0.60;;;17.00;61.70;;;;;;4952980;28;20449;-22
2022/01/29 07:10:30;;;;;;;0.50;0.50;;;17.00;61.70;;;;;;4945414;28;20390;-22
2022/01/29 07:12:55;;;;;;;0.50;0.50;;;17.00;61.60;;;;;;4962373;28;20113;-21
2022/01/29 07:15:21;;;;;;;0.60;0.60;;;17.00;61.60;;;;;;4962343;28;20126;-22
2022/01/29 07:17:46;;;;;;;0.47;0.47;;;17.00;61.60;;;;;;4962722;28;20642;-22
2022/01/29 07:20:12;;;;;;;0.60;0.60;;;17.00;61.70;;;;;;4953864;28;20047;-22
2022/01/29 07:22:39;;;;;;;0.50;0.50;;;17.00;61.70;;;;;;4962057;28;20153;-21
2022/01/29 07:25:05;;;;;;;0.40;0.40;;;17.00;61.70;;;;;;4962738;28;20061;-22
2022/01/29 07:27:31;;;;;;;0.55;0.55;;;17.00;61.70;;;;;;4963299;28;20047;-22
2022/01/29 07:29:56;;;;;;;0.60;0.60;;;17.00;62.50;;;;;;4962090;28;20097;-22
2022/01/29 07:32:22;;;;;;;0.70;0.70;;;17.00;61.70;;;;;;4962845;28;20448;-22
2022/01/29 07:34:47;;;;;;;0.60;0.60;;;17.00;61.70;;;;;;4960010;28;20504;-21
2022/01/29 07:37:13;;;;;;;0.40;0.40;;;17.00;61.70;;;;;;4943833;28;20063;-21
2022/01/29 07:39:39;;;;;;;0.60;0.60;;;16.90;61.60;;;;;;4943308;28;20063;-21
2022/01/29 07:42:04;;;;;;;0.40;0.40;;;16.90;61.60;;;;;;4942853;28;20532;-22
2022/01/29 07:44:30;;;;;;;0.40;0.40;;;16.90;61.80;;;;;;4943852;28;20048;-22
2022/01/29 07:46:56;;;;;;;0.47;0.47;;;16.90;61.70;;;;;;4943374;28;20044;-22
2022/01/29 07:49:21;;;;;;;0.60;0.60;;;16.90;61.70;;;;;;4953666;28;20515;-22
2022/01/29 07:51:47;;;;;;;0.50;0.50;;;16.90;61.70;;;;;;4960090;28;20046;-22
2022/01/29 07:54:12;;;;;;;0.60;0.60;;;16.90;61.70;;;;;;4957795;28;20305;-22
2022/01/29 07:56:38;;;;;;;0.52;0.52;;;16.90;61.80;;;;;;4940264;28;20183;-21
2022/01/29 07:59:04;;;;;;;0.60;0.60;;;16.90;61.70;;;;;;4959712;28;20067;-22
2022/01/29 08:01:29;;;;;;;0.50;0.50;;;16.90;61.70;;;;;;4960012;28;20046;-22
2022/01/29 08:03:55;;;;;;;0.70;0.70;;;16.90;61.80;;;;;;4958729;28;20035;-22
2022/01/29 08:06:26;;;;;;;0.43;0.43;;;16.90;61.70;;;;;;4960074;28;20044;-22
2022/01/29 08:08:52;;;;;;;0.50;0.50;;;16.90;61.60;;;;;;4959175;28;20142;-22
2022/01/29 08:11:17;;;;;;;0.50;0.50;;;16.90;61.70;;;;;;4976953;28;20075;-22
2022/01/29 08:13:46;;;;;;;0.43;0.43;;;16.90;61.80;;;;;;4964897;28;20050;-22
2022/01/29 08:16:12;;;;;;;0.63;0.57;;;16.90;61.80;;;;;;4613528;28;10000321;-21
2022/01/29 08:18:37;;;;;;;0.82;0.50;;;16.90;61.90;;;;;;4954111;28;20546;-22
2022/01/29 08:21:03;;;;;;;2.47;0.40;;;16.90;62.10;;;;;;4955268;28;20134;-21
2022/01/29 08:23:29;;;;;;;0.57;0.57;;;16.90;62.20;;;;;;4955367;28;20194;-20
2022/01/29 08:25:54;;;;;;;1.92;0.50;;;16.90;62.50;;;;;;4954363;28;20043;-21
2022/01/29 08:28:20;;;;;;;1.35;0.70;;;16.90;62.50;;;;;;4955220;28;20047;-22
2022/01/29 08:30:45;;;;;;;0.73;0.60;;;16.90;62.40;;;;;;4954434;28;20433;-22
2022/01/29 08:33:17;;;;;;;0.43;0.40;;;16.90;62.30;;;;;;4954987;28;20054;-21
2022/01/29 08:35:42;;;;;;;1.20;0.50;;;16.90;62.40;;;;;;4946547;28;20537;-21
2022/01/29 08:38:08;;;;;;;2.05;0.50;;;16.90;62.40;;;;;;4949113;28;21009;-22
2022/01/29 08:40:33;;;;;;;3.05;0.50;;;16.90;62.30;;;;;;4951488;28;20058;-21
2022/01/29 08:42:59;;;;;;;0.65;0.50;;;16.90;62.40;;;;;;4954586;28;20055;-21
2022/01/29 08:45:25;;;;;;;1.13;0.55;;;16.90;62.60;;;;;;4955685;28;20519;-21
2022/01/29 08:47:50;;;;;;;0.73;0.60;;;16.90;62.60;;;;;;4954377;28;20047;-23
2022/01/29 08:50:16;;;;;;;0.57;0.50;;;16.90;62.70;;;;;;4954677;28;20382;-22
2022/01/29 08:52:41;;;;;;;0.45;0.45;;;16.90;62.90;;;;;;4949344;28;20043;-22
2022/01/29 08:55:08;;;;;;;1.38;0.32;;;16.90;62.80;;;;;;4953299;28;20456;-21
2022/01/29 08:57:34;;;;;;;1.45;0.50;;;16.90;62.70;;;;;;4946002;28;20086;-22
2022/01/29 09:00:00;;;;;;;0.52;0.50;;;16.90;62.80;;;;;;4958220;28;20040;-22
2022/01/29 09:02:26;;;;;;;2.78;0.50;;;16.90;62.90;;;;;;4950082;28;20048;-21
2022/01/29 09:04:53;;;;;;;0.60;0.55;;;16.90;63.00;;;;;;4944353;28;20039;-23
2022/01/29 09:07:19;;;;;;;0.43;0.30;;;17.00;63.20;;;;;;4957478;28;20664;-22
2022/01/29 09:09:45;;;;;;;0.60;0.60;;;17.00;64.70;;;;;;4957385;28;20572;-22
2022/01/29 09:12:12;;;;;;;2.05;0.85;;;16.90;65.30;;;;;;4958044;28;20595;-22
2022/01/29 09:14:38;;;;;;;1.52;0.82;;;16.90;65.50;;;;;;4958131;28;20066;-21
2022/01/29 09:17:03;;;;;;;1.05;0.52;;;16.90;65.70;;;;;;4955261;28;20058;-24
2022/01/29 09:19:29;;;;;;;1.23;0.70;;;17.00;65.80;;;;;;4954686;28;20126;-22
2022/01/29 09:21:55;;;;;;;2.22;0.88;;;17.00;65.90;;;;;;4953547;28;20640;-22
2022/01/29 09:24:20;;;;;;;3.53;0.80;;;17.00;65.90;;;;;;4952279;28;20055;-22
2022/01/29 09:26:46;;;;;;;4.70;0.80;;;17.00;66.70;;;;;;4938574;28;20564;-23
2022/01/29 09:29:11;;;;;;;0.75;0.70;;;17.00;66.20;;;;;;4939185;28;20043;-19
2022/01/29 09:31:37;;;;;;;0.68;0.68;;;17.00;66.10;;;;;;4945155;28;20098;-20
2022/01/29 09:34:02;;;;;;;0.70;0.70;;;16.90;66.10;;;;;;4952872;28;20046;-20
2022/01/29 09:36:28;;;;;;;0.65;0.65;;;16.90;66.10;;;;;;4952065;28;20134;-20
2022/01/29 09:38:54;;;;;;;0.60;0.60;;;17.00;66.30;;;;;;4953851;28;20081;-22
2022/01/29 09:41:21;;;;;;;0.70;0.70;;;17.00;66.50;;;;;;4945708;28;20125;-21
2022/01/29 09:43:47;;;;;;;0.70;0.70;;;17.00;66.60;;;;;;4953459;28;20039;-20
2022/01/29 09:46:15;;;;;;;1.58;0.80;;;17.00;66.50;;;;;;4955194;28;20043;-21
2022/01/29 09:48:40;;;;;;;0.57;0.57;;;17.00;66.50;;;;;;4957034;28;20504;-20
2022/01/29 09:51:08;;;;;;;0.73;0.73;;;17.00;66.90;;;;;;4972015;28;20420;-22
2022/01/29 09:53:34;;;;;;;0.85;0.80;;;17.00;66.50;;;;;;4955005;28;20047;-21
2022/01/29 09:55:59;;;;;;;0.90;0.55;;;17.10;65.80;;;;;;4956428;28;20043;-20
2022/01/29 09:58:25;;;;;;;1.40;0.50;;;17.10;66.30;;;;;;4957676;28;20035;-20
2022/01/29 10:00:50;;;;;;;0.50;0.50;;;17.10;66.20;;;;;;4956525;28;20055;-21
2022/01/29 10:03:17;;;;;;;0.55;0.50;;;17.10;66.00;;;;;;4957799;28;20103;-20
2022/01/29 10:05:49;;;;;;;0.70;0.70;;;17.10;65.80;;;;;;4956109;28;20145;-21
2022/01/29 10:08:15;;;;;;;1.30;0.60;;;17.10;66.30;;;;;;4955892;28;20047;-21
2022/01/29 10:10:45;;;;;;;0.50;0.50;;;17.10;66.20;;;;;;4957337;28;20043;-20
2022/01/29 10:13:36;;;;;;;0.63;0.50;;;17.00;66.00;;;;;;4953061;28;20045;-20
2022/01/29 10:16:06;;;;;;;1.20;0.57;;;17.10;66.20;;;;;;4948656;28;20125;-21
2022/01/29 10:18:32;;;;;;;0.50;0.50;;;17.10;65.80;;;;;;4949019;28;20052;-21
2022/01/29 10:21:11;;;;;;;1.23;0.50;;;17.10;66.00;;;;;;4956056;28;20051;-20
2022/01/29 10:23:36;;;;;;;0.50;0.50;;;17.10;66.00;;;;;;4948678;28;20631;-20
2022/01/29 10:26:04;;;;;;;0.40;0.40;;;17.10;66.20;;;;;;4946435;28;20039;-20
2022/01/29 10:28:30;;;;;;;0.88;0.50;;;17.10;65.80;;;;;;4937062;28;20044;-20
2022/01/29 10:31:00;;;;;;;0.57;0.50;;;17.10;66.00;;;;;;4945281;28;20058;-20
2022/01/29 10:33:28;;;;;;;0.52;0.35;;;17.10;65.80;;;;;;4947713;28;20048;-20
2022/01/29 10:35:55;;;;;;;0.40;0.40;;;17.10;66.00;;;;;;4939917;28;20072;-21
2022/01/29 10:38:41;;;;;;;0.50;0.50;;;17.10;66.00;;;;;;4956455;28;20110;-21
2022/01/29 10:41:30;;;;;;;0.45;0.45;;;17.10;66.00;;;;;;4950027;28;20038;-21
2022/01/29 10:46:58;;;;;;;0.30;0.30;;;17.10;65.90;;;;;;4938082;28;20095;-22
2022/01/29 10:49:26;;;;;;;0.50;0.50;;;17.10;66.10;;;;;;4954639;28;20074;-23
2022/01/29 10:52:04;;;;;;;0.32;0.32;;;17.10;65.70;;;;;;4956007;28;20039;-23
2022/01/29 10:54:37;;;;;;;0.38;0.38;;;17.10;65.90;;;;;;4951879;28;20051;-21
2022/01/29 10:57:07;;;;;;;1.17;0.40;;;17.10;65.70;;;;;;4610422;28;9999861;-23
2022/01/29 10:59:35;;;;;;;0.63;0.40;;;17.10;66.00;;;;;;4949720;28;20055;-22
2022/01/29 11:02:03;;;;;;;0.60;0.30;;;17.10;66.00;;;;;;4958904;28;20061;-22
2022/01/29 11:04:30;;;;;;;0.63;0.40;;;17.10;66.00;;;;;;4961320;28;20053;-23
2022/01/29 11:06:58;;;;;;;0.40;0.40;;;17.10;66.10;;;;;;4952861;28;20043;-22
2022/01/29 11:09:23;;;;;;;3.10;0.50;;;17.10;66.20;;;;;;4953243;28;20059;-22
2022/01/29 11:11:50;;;;;;;0.35;0.30;;;17.10;66.10;;;;;;4943768;28;20043;-20
2022/01/29 11:14:18;;;;;;;0.40;0.40;;;17.10;66.10;;;;;;4947503;28;20055;-19
2022/01/29 11:16:44;;;;;;;0.30;0.30;;;17.10;66.20;;;;;;4952870;28;20043;-21
2022/01/29 11:19:10;;;;;;;0.52;0.30;;;17.10;66.10;;;;;;4950826;28;20149;-19
2022/01/29 11:21:36;;;;;;;0.65;0.30;;;17.10;66.10;;;;;;4965015;28;20047;-21
2022/01/29 11:24:01;;;;;;;0.60;0.45;;;17.20;65.90;;;;;;4944726;28;20043;-20
2022/01/29 11:26:29;;;;;;;0.98;0.50;;;17.20;65.80;;;;;;4953222;28;20054;-19
2022/01/29 11:29:24;;;;;;;0.68;0.30;;;17.20;65.80;;;;;;4954704;28;20047;-20
2022/01/29 11:32:22;;;;;;;3.92;0.40;;;17.30;65.30;;;;;;4951157;28;20058;-20
2022/01/29 11:35:04;;;;;;;0.65;0.40;;;17.20;65.90;;;;;;4941500;28;20512;-18
2022/01/29 11:37:44;;;;;;;0.40;0.30;;;17.20;65.10;;;;;;4946690;28;20126;-18
2022/01/29 11:40:34;;;;;;;0.40;0.40;;;17.20;65.70;;;;;;4955943;28;20081;-19
2022/01/29 11:43:18;;;;;;;0.30;0.28;;;17.20;66.30;;;;;;4945224;28;20583;-19
2022/01/29 11:46:03;;;;;;;0.63;0.40;;;17.20;66.10;;;;;;4956578;28;20046;-19
2022/01/29 11:48:34;;;;;;;0.35;0.22;;;17.20;65.50;;;;;;4976476;28;20051;-20
2022/01/29 11:51:05;;;;;;;2.60;0.30;;;17.20;67.10;;;;;;4955921;28;20051;-19
2022/01/29 11:53:45;;;;;;;0.38;0.22;;;17.20;66.70;;;;;;4954292;28;20051;-20
2022/01/29 11:56:30;;;;;;;1.25;0.47;;;17.10;66.60;;;;;;4955636;28;20618;-19
2022/01/29 11:59:27;;;;;;;0.38;0.38;;;17.10;66.50;;;;;;4951298;28;20058;-20
2022/01/29 12:02:01;;;;;;;0.57;0.35;;;17.10;66.50;;;;;;4952670;28;20054;-20
2022/01/29 12:04:49;;;;;;;0.40;0.40;;;17.20;66.30;;;;;;4947586;28;20158;-20
2022/01/29 12:07:21;;;;;;;0.40;0.30;;;17.20;65.80;;;;;;4944891;28;20051;-20
2022/01/29 12:09:52;;;;;;;2.25;0.52;;;17.20;66.00;;;;;;4953702;28;20614;-19
2022/01/29 12:12:18;;;;;;;0.50;0.43;;;17.20;66.30;;;;;;4953504;28;20046;-20
2022/01/29 12:14:48;;;;;;;0.77;0.45;;;17.20;66.40;;;;;;4950475;28;20070;-19
2022/01/29 12:17:44;;;;;;;1.88;0.50;;;17.30;66.00;;;;;;4955050;28;20055;-19
2022/01/29 12:20:20;;;;;;;2.92;0.47;;;17.30;66.70;;;;;;4965490;28;20070;-20
2022/01/29 12:22:46;;;;;;;0.85;0.43;;;17.30;66.60;;;;;;4949065;28;20055;-20
2022/01/29 12:25:14;;;;;;;0.77;0.70;;;17.30;67.50;;;;;;4954250;28;20047;-20
2022/01/29 12:27:47;;;;;;;2.40;0.50;;;17.20;67.80;;;;;;4951700;28;20055;-20
2022/01/29 12:30:15;;;;;;;6.70;0.63;;;17.20;67.80;;;;;;4953060;28;20039;-20
2022/01/29 12:32:52;;;;;;;1.25;0.32;;;17.20;67.70;;;;;;4955181;28;20055;-20
2022/01/29 12:35:18;;;;;;;1.42;0.40;;;17.20;67.50;;;;;;4954514;28;20057;-20
2022/01/29 12:37:53;;;;;;;0.20;0.20;;;17.20;67.60;;;;;;4955657;28;20697;-19
2022/01/29 12:40:21;;;;;;;1.90;0.57;;;17.20;67.40;;;;;;4950588;28;20059;-20
2022/01/29 12:42:56;;;;;;;0.40;0.40;;;17.20;67.60;;;;;;4962894;28;20043;-20
2022/01/29 12:45:27;;;;;;;0.77;0.40;;;17.20;67.10;;;;;;4955052;28;20526;-19
2022/01/29 12:48:08;;;;;;;0.35;0.35;;;17.20;67.30;;;;;;4952309;28;20045;-20
2022/01/29 12:50:34;;;;;;;0.35;0.35;;;17.20;67.30;;;;;;4945153;28;20055;-18
2022/01/29 12:53:10;;;;;;;0.50;0.35;;;17.30;67.10;;;;;;4952201;28;20043;-20
2022/01/29 12:55:35;;;;;;;0.28;0.28;;;17.30;67.10;;;;;;4955101;28;20047;-20
2022/01/29 12:58:01;;;;;;;0.90;0.22;;;17.20;67.10;;;;;;4955838;28;20076;-20
2022/01/29 13:00:26;;;;;;;0.98;0.45;;;17.30;67.00;;;;;;4965627;28;20054;-19
2022/01/29 13:02:52;;;;;;;1.25;0.40;;;17.30;66.90;;;;;;4945916;28;20053;-20
2022/01/29 13:05:18;;;;;;;0.28;0.28;;;17.30;66.70;;;;;;4962731;28;20082;-19